createdAt,value
2017-11-19T00:00:18.410Z,9.70
2017-11-19T00:02:46.036Z,10.60
2017-11-19T00:05:13.732Z,10.17
2017-11-19T00:07:41.407Z,9.40
2017-11-19T00:10:09.165Z,9.50
2017-11-19T00:12:36.695Z,9.03
2017-11-19T00:15:04.299Z,8.93
2017-11-19T00:17:31.850Z,9.33
2017-11-19T00:19:59.655Z,8.13
2017-11-19T00:22:27.400Z,8.77
2017-11-19T00:24:54.987Z,8.30
2017-11-19T00:27:22.605Z,8.50
2017-11-19T00:29:50.266Z,7.37
2017-11-19T00:32:17.948Z,7.87
2017-11-19T00:34:45.465Z,7.23
2017-11-19T00:37:12.983Z,8.37
2017-11-19T00:39:40.645Z,7.60
2017-11-19T00:42:08.186Z,8.00
2017-11-19T00:44:35.750Z,7.27
2017-11-19T00:47:03.333Z,7.47
2017-11-19T00:49:30.850Z,7.47
2017-11-19T00:51:58.455Z,7.70
2017-11-19T00:54:26.073Z,8.63
2017-11-19T00:56:53.719Z,7.37
2017-11-19T00:59:21.317Z,7.70
2017-11-19T01:01:48.870Z,8.00
2017-11-19T01:04:16.379Z,7.97
2017-11-19T01:06:43.916Z,7.40
2017-11-19T01:09:11.495Z,7.47
2017-11-19T01:11:39.061Z,9.00
2017-11-19T01:14:06.676Z,7.60
2017-11-19T01:16:34.243Z,7.60
2017-11-19T01:19:01.788Z,7.97
2017-11-19T01:21:29.371Z,7.70
2017-11-19T01:23:57.011Z,7.50
2017-11-19T01:26:24.559Z,7.53
2017-11-19T01:28:52.076Z,7.87
2017-11-19T01:31:19.654Z,7.43
2017-11-19T01:33:47.199Z,8.10
2017-11-19T01:36:14.751Z,7.13
2017-11-19T01:38:42.345Z,7.63
2017-11-19T01:41:09.883Z,7.47
2017-11-19T01:43:37.476Z,7.87
2017-11-19T01:46:05.132Z,6.93
2017-11-19T01:48:32.664Z,7.47
2017-11-19T01:51:00.218Z,7.60
2017-11-19T01:53:27.826Z,7.47
2017-11-19T01:55:55.355Z,7.00
2017-11-19T01:58:22.889Z,6.70
2017-11-19T02:00:50.586Z,7.47
2017-11-19T02:03:18.164Z,7.33
2017-11-19T02:05:45.715Z,8.00
2017-11-19T02:08:13.363Z,7.43
2017-11-19T02:10:40.888Z,8.20
2017-11-19T02:13:08.451Z,7.33
2017-11-19T02:15:36.097Z,7.30
2017-11-19T02:18:03.735Z,7.47
2017-11-19T02:20:31.247Z,7.87
2017-11-19T02:22:58.839Z,7.20
2017-11-19T02:25:26.366Z,7.63
2017-11-19T02:27:53.891Z,7.67
2017-11-19T02:30:21.467Z,8.07
2017-11-19T02:32:49.003Z,7.70
2017-11-19T02:35:16.540Z,7.23
2017-11-19T02:37:44.184Z,8.67
2017-11-19T02:40:11.790Z,8.30
2017-11-19T02:42:39.322Z,7.30
2017-11-19T02:45:06.953Z,7.97
2017-11-19T02:47:34.508Z,8.43
2017-11-19T02:50:02.027Z,7.83
2017-11-19T02:52:29.604Z,8.80
2017-11-19T02:54:57.335Z,8.07
2017-11-19T02:57:24.883Z,8.40
2017-11-19T02:59:52.475Z,8.00
2017-11-19T03:02:20.146Z,7.30
2017-11-19T03:04:47.677Z,8.30
2017-11-19T03:07:15.219Z,8.77
2017-11-19T03:09:42.804Z,8.40
2017-11-19T03:12:10.411Z,7.90
2017-11-19T03:14:37.944Z,7.77
2017-11-19T03:17:05.507Z,8.20
2017-11-19T03:19:33.023Z,7.83
2017-11-19T03:22:00.530Z,8.97
2017-11-19T03:24:28.119Z,8.40
2017-11-19T03:26:55.694Z,9.03
2017-11-19T03:29:23.326Z,9.07
2017-11-19T03:31:50.947Z,9.10
2017-11-19T03:34:18.530Z,8.10
2017-11-19T03:36:46.094Z,8.00
2017-11-19T03:39:13.683Z,9.13
2017-11-19T03:41:41.220Z,9.37
2017-11-19T03:44:08.795Z,8.50
2017-11-19T03:46:36.399Z,8.43
2017-11-19T03:49:04.192Z,8.27
2017-11-19T03:51:31.703Z,9.40
2017-11-19T03:53:59.290Z,9.13
2017-11-19T03:56:26.865Z,9.17
2017-11-19T03:58:54.379Z,9.50
2017-11-19T04:01:22.001Z,10.17
2017-11-19T04:03:49.523Z,9.73
2017-11-19T04:06:17.205Z,9.60
2017-11-19T04:08:44.798Z,10.20
2017-11-19T04:11:12.323Z,9.33
2017-11-19T04:13:39.884Z,9.60
2017-11-19T04:16:07.480Z,8.57
2017-11-19T04:18:35.071Z,8.50
2017-11-19T04:21:02.648Z,10.37
2017-11-19T04:23:30.236Z,11.00
2017-11-19T04:25:57.845Z,9.73
2017-11-19T04:28:25.427Z,10.50
2017-11-19T04:30:53.161Z,9.60
2017-11-19T04:33:20.685Z,10.63
2017-11-19T04:35:48.229Z,11.10
2017-11-19T04:38:15.816Z,11.27
2017-11-19T04:40:43.564Z,12.60
2017-11-19T04:43:11.117Z,12.00
2017-11-19T04:45:38.706Z,12.63
2017-11-19T04:48:06.275Z,13.33
2017-11-19T04:50:33.818Z,13.57
2017-11-19T04:53:01.392Z,12.43
2017-11-19T04:55:28.923Z,13.87
2017-11-19T04:57:56.455Z,12.93
2017-11-19T05:00:24.108Z,12.00
2017-11-19T05:02:51.691Z,13.60
2017-11-19T05:05:19.317Z,13.70
2017-11-19T05:07:46.905Z,15.13
2017-11-19T05:10:14.440Z,13.43
2017-11-19T05:12:41.987Z,13.60
2017-11-19T05:15:09.644Z,13.67
2017-11-19T05:17:37.244Z,14.20
2017-11-19T05:20:04.797Z,13.90
2017-11-19T05:22:32.399Z,15.10
2017-11-19T05:24:59.968Z,15.07
2017-11-19T05:27:27.490Z,14.73
2017-11-19T05:29:55.066Z,15.00
2017-11-19T05:32:22.723Z,13.33
2017-11-19T05:34:50.253Z,14.27
2017-11-19T05:37:17.788Z,14.47
2017-11-19T05:39:45.382Z,14.47
2017-11-19T05:42:12.916Z,16.07
2017-11-19T05:44:40.513Z,15.03
2017-11-19T05:47:08.087Z,14.97
2017-11-19T05:49:35.646Z,15.20
2017-11-19T05:52:03.265Z,15.93
2017-11-19T05:54:30.863Z,14.40
2017-11-19T05:56:58.390Z,15.50
2017-11-19T05:59:26.187Z,14.17
2017-11-19T06:01:53.802Z,14.83
2017-11-19T06:04:21.394Z,14.33
2017-11-19T06:06:49.163Z,13.93
2017-11-19T06:09:16.878Z,14.30
2017-11-19T06:11:44.632Z,13.37
2017-11-19T06:14:12.367Z,14.70
2017-11-19T06:16:40.011Z,14.97
2017-11-19T06:19:07.564Z,14.23
2017-11-19T06:21:36.041Z,14.03
2017-11-19T06:24:04.119Z,14.77
2017-11-19T06:26:31.910Z,14.10
2017-11-19T06:28:59.717Z,13.73
2017-11-19T06:31:27.483Z,15.70
2017-11-19T06:33:55.082Z,12.50
2017-11-19T06:36:22.654Z,14.93
2017-11-19T06:38:50.267Z,14.33
2017-11-19T06:41:19.349Z,13.10
2017-11-19T06:43:46.965Z,13.90
2017-11-19T06:46:15.368Z,13.27
2017-11-19T06:49:07.727Z,13.87
2017-11-19T06:51:36.158Z,13.50
2017-11-19T06:54:04.131Z,13.30
2017-11-19T06:56:31.817Z,13.90
2017-11-19T06:58:59.475Z,13.63
2017-11-19T07:01:27.056Z,13.47
2017-11-19T07:03:54.881Z,13.60
2017-11-19T07:06:22.765Z,13.30
2017-11-19T07:08:51.261Z,13.20
2017-11-19T07:11:18.878Z,14.60
2017-11-19T07:13:46.615Z,13.03
2017-11-19T07:16:14.292Z,13.27
2017-11-19T07:18:42.556Z,15.07
2017-11-19T07:21:10.095Z,14.07
2017-11-19T07:23:37.658Z,13.63
2017-11-19T07:26:05.444Z,14.77
2017-11-19T07:28:33.364Z,13.63
2017-11-19T07:31:01.543Z,14.67
2017-11-19T07:33:29.211Z,14.50
2017-11-19T07:35:57.032Z,13.70
2017-11-19T07:38:24.703Z,14.73
2017-11-19T07:40:52.534Z,15.33
2017-11-19T07:43:20.477Z,15.47
2017-11-19T07:45:48.155Z,14.77
2017-11-19T07:48:15.964Z,15.17
2017-11-19T07:50:43.999Z,15.03
2017-11-19T07:53:11.627Z,14.83
2017-11-19T07:55:39.270Z,15.50
2017-11-19T07:58:06.905Z,14.77
2017-11-19T08:00:34.570Z,13.93
2017-11-19T08:03:02.243Z,14.17
2017-11-19T08:05:29.862Z,12.57
2017-11-19T08:07:58.238Z,14.77
2017-11-19T08:10:25.871Z,13.43
2017-11-19T08:12:53.650Z,13.23
2017-11-19T08:15:22.803Z,13.30
2017-11-19T08:21:28.269Z,13.37
2017-11-19T08:24:00.345Z,12.70
2017-11-19T08:40:03.350Z,9.97
2017-11-19T08:42:31.077Z,11.33
2017-11-19T08:44:59.400Z,10.67
2017-11-19T08:47:28.379Z,11.20
2017-11-19T08:49:56.074Z,10.90
2017-11-19T08:52:23.840Z,11.20
2017-11-19T08:54:51.471Z,11.30
2017-11-19T08:57:20.062Z,11.40
2017-11-19T08:59:47.899Z,12.43
2017-11-19T09:02:15.659Z,13.80
2017-11-19T09:04:43.204Z,12.40
2017-11-19T09:07:11.110Z,13.23
2017-11-19T09:09:38.684Z,13.40
2017-11-19T09:12:07.095Z,14.80
2017-11-19T09:14:34.860Z,14.30
2017-11-19T09:17:02.447Z,14.60
2017-11-19T09:19:30.025Z,16.00
2017-11-19T09:21:57.651Z,18.37
2017-11-19T09:24:26.463Z,16.60
2017-11-19T09:26:54.467Z,16.80
2017-11-19T09:29:22.090Z,14.43
2017-11-19T09:31:49.770Z,14.77
2017-11-19T09:34:18.905Z,13.80
2017-11-19T09:36:46.697Z,15.13
2017-11-19T09:39:14.621Z,14.17
2017-11-19T09:41:46.085Z,14.27
2017-11-19T09:44:13.759Z,13.80
2017-11-19T09:46:42.785Z,13.40
2017-11-19T09:49:11.280Z,14.03
2017-11-19T09:51:38.866Z,15.40
2017-11-19T09:54:08.534Z,16.97
2017-11-19T09:56:36.228Z,14.00
2017-11-19T09:59:05.907Z,13.50
2017-11-19T10:01:33.663Z,14.17
2017-11-19T10:04:01.337Z,13.77
2017-11-19T10:06:29.457Z,12.90
2017-11-19T10:08:57.914Z,12.47
2017-11-19T10:11:25.816Z,12.30
2017-11-19T10:13:54.351Z,12.90
2017-11-19T10:16:22.014Z,12.20
2017-11-19T10:18:49.627Z,12.67
2017-11-19T10:21:17.281Z,12.60
2017-11-19T10:23:44.996Z,13.40
2017-11-19T10:26:12.879Z,11.90
2017-11-19T10:28:43.113Z,12.50
2017-11-19T10:31:11.884Z,12.50
2017-11-19T10:36:15.508Z,11.83
2017-11-19T10:38:44.075Z,13.33
2017-11-19T10:41:11.716Z,13.80
2017-11-19T10:43:39.539Z,14.27
2017-11-19T10:46:07.116Z,13.67
2017-11-19T10:48:36.649Z,13.13
2017-11-19T10:51:08.973Z,14.23
2017-11-19T10:53:37.063Z,14.10
2017-11-19T10:56:05.382Z,13.77
2017-11-19T10:58:39.191Z,13.73
2017-11-19T11:01:08.119Z,13.37
2017-11-19T11:03:35.752Z,12.57
2017-11-19T11:06:05.311Z,14.43
2017-11-19T11:08:33.076Z,11.97
2017-11-19T11:11:01.839Z,11.60
2017-11-19T11:13:32.104Z,13.60
2017-11-19T11:19:16.337Z,14.07
2017-11-19T11:21:43.959Z,15.00
2017-11-19T11:24:16.599Z,16.60
2017-11-19T11:26:46.111Z,12.67
2017-11-19T11:29:13.734Z,12.60
2017-11-19T11:31:41.553Z,12.03
2017-11-19T11:34:09.254Z,14.80
2017-11-19T11:36:36.913Z,13.40
2017-11-19T11:39:04.561Z,13.30
2017-11-19T11:41:32.140Z,14.37
2017-11-19T11:44:00.608Z,13.33
2017-11-19T11:46:28.289Z,12.77
2017-11-19T11:48:56.002Z,13.20
2017-11-19T11:51:23.608Z,14.23
2017-11-19T11:53:51.216Z,12.93
2017-11-19T11:56:18.935Z,12.13
2017-11-19T11:58:46.556Z,11.80
2017-11-19T12:01:14.598Z,13.80
2017-11-19T12:03:42.187Z,15.13
2017-11-19T12:06:09.791Z,15.40
2017-11-19T12:08:37.428Z,13.60
2017-11-19T12:11:10.350Z,14.47
2017-11-19T12:13:38.015Z,14.80
2017-11-19T12:16:05.577Z,15.50
2017-11-19T12:18:33.119Z,12.37
2017-11-19T12:21:01.729Z,14.20
2017-11-19T12:23:32.296Z,14.67
2017-11-19T12:26:00.073Z,15.30
2017-11-19T12:28:28.945Z,15.67
2017-11-19T12:30:56.913Z,14.73
2017-11-19T12:33:24.496Z,13.73
2017-11-19T12:35:53.087Z,14.50
2017-11-19T12:38:20.687Z,15.37
2017-11-19T12:40:55.282Z,14.50
2017-11-19T12:43:22.882Z,18.13
2017-11-19T12:45:51.134Z,14.00
2017-11-19T12:48:20.772Z,11.83
2017-11-19T12:50:48.538Z,12.00
2017-11-19T12:53:18.888Z,12.37
2017-11-19T12:56:07.724Z,14.47
2017-11-19T12:58:38.431Z,13.60
2017-11-19T13:01:06.070Z,11.43
2017-11-19T13:03:34.394Z,13.40
2017-11-19T13:06:02.199Z,13.10
2017-11-19T13:08:29.804Z,12.80
2017-11-19T13:10:57.507Z,14.00
2017-11-19T13:13:25.093Z,13.67
2017-11-19T13:15:52.706Z,12.70
2017-11-19T13:18:20.341Z,15.30
2017-11-19T13:20:52.783Z,17.60
2017-11-19T13:23:20.859Z,14.53
2017-11-19T13:25:50.442Z,14.70
2017-11-19T13:28:18.033Z,16.17
2017-11-19T13:30:45.733Z,13.33
2017-11-19T13:33:13.846Z,12.20
2017-11-19T13:35:41.403Z,13.00
2017-11-19T13:38:09.061Z,13.77
2017-11-19T13:40:36.636Z,13.60
2017-11-19T13:43:06.061Z,12.63
2017-11-19T13:45:33.731Z,14.03
2017-11-19T13:48:01.344Z,14.27
2017-11-19T13:50:29.256Z,12.90
2017-11-19T13:52:56.844Z,10.50
2017-11-19T13:55:24.809Z,12.87
2017-11-19T13:57:52.585Z,11.40
2017-11-19T14:00:20.289Z,10.77
2017-11-19T14:02:47.852Z,11.43
2017-11-19T14:05:16.376Z,11.77
2017-11-19T14:07:46.219Z,12.03
2017-11-19T14:10:15.130Z,12.23
2017-11-19T14:12:44.940Z,11.97
2017-11-19T14:15:14.981Z,12.03
2017-11-19T14:17:44.999Z,12.67
2017-11-19T14:20:14.300Z,10.30
2017-11-19T14:22:43.128Z,11.27
2017-11-19T14:25:11.116Z,10.87
2017-11-19T14:27:41.240Z,10.90
2017-11-19T14:30:13.527Z,12.57
2017-11-19T14:32:47.729Z,12.60
2017-11-19T14:35:16.839Z,12.03
2017-11-19T14:37:55.107Z,13.20
2017-11-19T14:40:25.282Z,15.00
2017-11-19T14:42:54.397Z,14.83
2017-11-19T14:45:23.066Z,13.60
2017-11-19T14:47:53.249Z,13.53
2017-11-19T14:50:21.858Z,21.97
2017-11-19T14:52:51.058Z,17.90
2017-11-19T14:55:21.000Z,22.53
2017-11-19T14:57:51.014Z,16.10
2017-11-19T15:00:20.324Z,16.10
2017-11-19T15:02:51.535Z,31.03
2017-11-19T15:05:22.814Z,17.40
2017-11-19T15:07:58.055Z,33.50
2017-11-19T15:10:29.574Z,14.57
2017-11-19T15:12:59.367Z,19.90
2017-11-19T15:15:30.436Z,14.37
2017-11-19T15:17:58.740Z,13.70
2017-11-19T15:20:29.250Z,12.17
2017-11-19T15:22:58.046Z,15.70
2017-11-19T15:25:34.457Z,13.40
2017-11-19T15:28:04.393Z,13.93
2017-11-19T15:30:34.145Z,13.43
2017-11-19T15:33:03.908Z,13.30
2017-11-19T15:35:33.649Z,14.30
2017-11-19T15:38:04.129Z,14.50
2017-11-19T15:40:33.010Z,14.07
2017-11-19T15:43:02.525Z,16.07
2017-11-19T15:45:32.178Z,16.20
2017-11-19T15:48:04.588Z,15.00
2017-11-19T15:50:36.090Z,16.90
2017-11-19T15:53:19.876Z,15.27
2017-11-19T15:56:05.232Z,17.90
2017-11-19T15:58:36.144Z,20.83
2017-11-19T16:01:04.092Z,18.80
2017-11-19T16:03:31.789Z,20.60
2017-11-19T16:05:59.906Z,18.60
2017-11-19T16:08:47.579Z,17.03
2017-11-19T16:14:44.322Z,15.93
2017-11-19T16:17:13.235Z,15.93
2017-11-19T16:19:40.809Z,15.77
2017-11-19T16:22:08.413Z,16.10
2017-11-19T16:24:36.009Z,15.00
2017-11-19T16:27:08.122Z,15.87
2017-11-19T16:29:35.832Z,15.07
2017-11-19T16:32:04.618Z,15.73
2017-11-19T16:34:32.261Z,15.50
2017-11-19T16:36:59.921Z,15.00
2017-11-19T16:39:27.779Z,14.40
2017-11-19T16:41:55.589Z,16.90
2017-11-19T16:44:23.505Z,15.23
2017-11-19T16:46:54.067Z,20.45
2017-11-19T16:49:21.754Z,15.67
2017-11-19T16:51:49.623Z,15.00
2017-11-19T16:54:18.562Z,15.35
2017-11-19T16:56:48.098Z,15.33
2017-11-19T16:59:16.147Z,13.97
2017-11-19T17:01:43.906Z,14.30
2017-11-19T17:04:11.564Z,14.97
2017-11-19T17:06:43.559Z,15.63
2017-11-19T17:09:11.157Z,15.10
2017-11-19T17:11:40.393Z,15.47
2017-11-19T17:14:08.117Z,15.07
2017-11-19T17:16:35.792Z,15.13
2017-11-19T17:19:03.386Z,16.00
2017-11-19T17:21:34.279Z,15.23
2017-11-19T17:24:02.168Z,14.67
2017-11-19T17:26:30.271Z,16.10
2017-11-19T17:28:57.923Z,15.57
2017-11-19T17:31:25.578Z,14.33
2017-11-19T17:33:53.174Z,16.03
2017-11-19T17:36:26.404Z,13.87
2017-11-19T17:41:31.101Z,14.90
2017-11-19T17:43:58.707Z,12.80
2017-11-19T17:46:27.536Z,12.70
2017-11-19T17:48:55.732Z,14.30
2017-11-19T17:51:23.329Z,12.33
2017-11-19T17:54:09.360Z,13.33
2017-11-19T18:14:38.796Z,14.97
2017-11-19T18:17:08.763Z,20.77
2017-11-19T18:19:37.284Z,16.27
2017-11-19T18:22:15.110Z,16.90
2017-11-19T18:24:45.826Z,17.53
2017-11-19T18:27:16.981Z,16.90
2017-11-19T18:29:49.510Z,17.90
2017-11-19T18:32:17.155Z,16.97
2017-11-19T18:34:45.032Z,19.27
2017-11-19T18:37:25.146Z,16.80
2017-11-19T18:39:53.341Z,16.83
2017-11-19T18:42:33.052Z,15.67
2017-11-19T18:47:58.748Z,15.37
2017-11-19T18:50:35.070Z,17.27
2017-11-19T18:56:48.799Z,18.57
2017-11-19T18:59:16.760Z,16.27
2017-11-19T19:01:44.498Z,15.77
2017-11-19T19:04:12.964Z,14.97
2017-11-19T19:06:40.610Z,14.83
2017-11-19T19:09:08.319Z,15.13
2017-11-19T19:11:35.918Z,15.80
2017-11-19T19:14:03.688Z,16.23
2017-11-19T19:16:31.448Z,15.40
2017-11-19T19:18:59.303Z,16.50
2017-11-19T19:25:05.829Z,15.63
2017-11-19T19:27:40.760Z,16.17
2017-11-19T19:30:10.549Z,13.57
2017-11-19T19:32:39.875Z,13.67
2017-11-19T19:35:07.532Z,14.07
2017-11-19T19:37:35.843Z,15.23
2017-11-19T19:40:19.573Z,15.37
2017-11-19T19:42:50.860Z,15.93
2017-11-19T19:45:18.530Z,14.97
2017-11-19T19:58:20.247Z,16.20
2017-11-19T20:00:51.875Z,16.27
2017-11-19T20:03:22.065Z,16.20
2017-11-19T20:44:29.325Z,14.63
2017-11-19T20:46:58.788Z,10.43
2017-11-19T20:49:28.955Z,11.67
2017-11-19T20:51:57.646Z,10.82
2017-11-19T20:54:27.471Z,9.48
2017-11-19T20:56:55.141Z,9.05
2017-11-19T20:59:24.600Z,9.30
2017-11-19T21:01:54.001Z,8.88
2017-11-19T21:04:23.736Z,8.18
2017-11-19T21:06:53.700Z,8.63
2017-11-19T21:09:32.873Z,9.38
2017-11-19T21:12:01.652Z,7.30
2017-11-19T21:14:33.699Z,7.18
2017-11-19T21:17:01.847Z,6.90
2017-11-19T21:19:41.694Z,7.00
2017-11-19T21:22:25.888Z,6.72
2017-11-19T21:24:56.513Z,7.20
2017-11-19T21:27:24.195Z,6.87
2017-11-19T21:29:53.094Z,7.07
2017-11-19T21:32:23.905Z,7.10
2017-11-19T21:34:54.789Z,5.90
2017-11-19T21:37:24.651Z,6.35
2017-11-19T21:39:55.533Z,6.03
2017-11-19T21:45:09.746Z,6.12
2017-11-19T22:36:35.819Z,7.62
2017-11-19T22:46:12.893Z,8.95
2017-11-19T22:48:43.046Z,9.50
2017-11-19T22:51:21.361Z,8.18
2017-11-19T23:00:47.394Z,6.20
2017-11-19T23:03:32.826Z,5.78
2017-11-19T23:10:00.832Z,4.90
2017-11-19T23:12:30.348Z,4.72
2017-11-19T23:14:59.804Z,3.53
2017-11-19T23:24:29.947Z,4.40
2017-11-19T23:27:07.440Z,4.97
2017-11-19T23:29:36.168Z,4.90
2017-11-19T23:32:05.132Z,5.03
2017-11-19T23:34:34.851Z,5.80
2017-11-19T23:47:48.264Z,5.53
2017-11-19T23:50:32.898Z,6.15
